sensor_id;sensor_type;location;lat;lon;timestamp;pressure;altitude;pressure_sealevel;temperature
42119;BMP280;27783;42.782;23.274;2022-12-07T00:01:13;95523.41;;;5.72
42119;BMP280;27783;42.782;23.274;2022-12-07T00:03:41;95532.84;;;5.80
42119;BMP280;27783;42.782;23.274;2022-12-07T00:06:08;95533.75;;;5.90
42119;BMP280;27783;42.782;23.274;2022-12-07T00:08:35;95538.38;;;6.00
42119;BMP280;27783;42.782;23.274;2022-12-07T00:11:10;95535.94;;;5.85
42119;BMP280;27783;42.782;23.274;2022-12-07T00:13:36;95541.31;;;5.95
42119;BMP280;27783;42.782;23.274;2022-12-07T00:16:05;95530.59;;;5.78
42119;BMP280;27783;42.782;23.274;2022-12-07T00:18:32;95536.75;;;5.67
42119;BMP280;27783;42.782;23.274;2022-12-07T00:21:08;95532.56;;;5.63
42119;BMP280;27783;42.782;23.274;2022-12-07T00:23:34;95537.13;;;5.66
42119;BMP280;27783;42.782;23.274;2022-12-07T00:26:06;95535.94;;;5.63
42119;BMP280;27783;42.782;23.274;2022-12-07T00:28:32;95539.41;;;5.70
42119;BMP280;27783;42.782;23.274;2022-12-07T00:31:02;95543.19;;;5.73
42119;BMP280;27783;42.782;23.274;2022-12-07T00:33:28;95540.84;;;5.65
42119;BMP280;27783;42.782;23.274;2022-12-07T00:35:59;95540.84;;;5.65
42119;BMP280;27783;42.782;23.274;2022-12-07T00:38:29;95536.75;;;5.67
42119;BMP280;27783;42.782;23.274;2022-12-07T00:41:00;95537.78;;;5.63
42119;BMP280;27783;42.782;23.274;2022-12-07T00:43:27;95532.28;;;5.67
42119;BMP280;27783;42.782;23.274;2022-12-07T00:45:53;95530.03;;;5.66
42119;BMP280;27783;42.782;23.274;2022-12-07T00:48:20;95523.28;;;5.65
42119;BMP280;27783;42.782;23.274;2022-12-07T00:50:47;95523.63;;;5.64
42119;BMP280;27783;42.782;23.274;2022-12-07T00:53:14;95530.63;;;5.60
42119;BMP280;27783;42.782;23.274;2022-12-07T00:55:41;95528.84;;;5.64
42119;BMP280;27783;42.782;23.274;2022-12-07T00:58:28;95520.53;;;5.58
42119;BMP280;27783;42.782;23.274;2022-12-07T01:01:02;95524.44;;;5.67
42119;BMP280;27783;42.782;23.274;2022-12-07T01:03:27;95530.53;;;5.75
42119;BMP280;27783;42.782;23.274;2022-12-07T01:05:54;95525.25;;;5.71
42119;BMP280;27783;42.782;23.274;2022-12-07T01:08:22;95528.63;;;5.72
42119;BMP280;27783;42.782;23.274;2022-12-07T01:10:48;95523.28;;;5.65
42119;BMP280;27783;42.782;23.274;2022-12-07T01:13:15;95524.25;;;5.57
42119;BMP280;27783;42.782;23.274;2022-12-07T01:16:03;95519.22;;;5.67
42119;BMP280;27783;42.782;23.274;2022-12-07T01:18:35;95517.88;;;5.55
42119;BMP280;27783;42.782;23.274;2022-12-07T01:21:13;95510.66;;;5.48
42119;BMP280;27783;42.782;23.274;2022-12-07T01:23:41;95510.78;;;5.55
42119;BMP280;27783;42.782;23.274;2022-12-07T01:26:13;95506.41;;;5.63
42119;BMP280;27783;42.782;23.274;2022-12-07T01:28:40;95507.22;;;5.66
42119;BMP280;27783;42.782;23.274;2022-12-07T01:31:12;95506.91;;;5.68
42119;BMP280;27783;42.782;23.274;2022-12-07T01:33:43;95512.13;;;5.68
42119;BMP280;27783;42.782;23.274;2022-12-07T01:36:32;95510.22;;;5.65
42119;BMP280;27783;42.782;23.274;2022-12-07T01:39:02;95510.47;;;5.60
42119;BMP280;27783;42.782;23.274;2022-12-07T01:41:30;95515.25;;;5.55
42119;BMP280;27783;42.782;23.274;2022-12-07T01:47:22;95498.75;;;5.51
42119;BMP280;27783;42.782;23.274;2022-12-07T01:49:48;95500.66;;;5.54
42119;BMP280;27783;42.782;23.274;2022-12-07T01:52:34;95502.50;;;5.53
42119;BMP280;27783;42.782;23.274;2022-12-07T01:55:12;95500.59;;;5.50
42119;BMP280;27783;42.782;23.274;2022-12-07T01:57:45;95498.41;;;5.52
42119;BMP280;27783;42.782;23.274;2022-12-07T02:00:12;95494.94;;;5.45
42119;BMP280;27783;42.782;23.274;2022-12-07T02:02:45;95499.50;;;5.51
42119;BMP280;27783;42.782;23.274;2022-12-07T02:05:13;95480.72;;;5.43
42119;BMP280;27783;42.782;23.274;2022-12-07T02:07:39;95492.16;;;5.60
42119;BMP280;27783;42.782;23.274;2022-12-07T02:10:16;95491.91;;;5.65
42119;BMP280;27783;42.782;23.274;2022-12-07T02:12:44;95479.25;;;5.45
42119;BMP280;27783;42.782;23.274;2022-12-07T02:15:12;95484.31;;;5.35
42119;BMP280;27783;42.782;23.274;2022-12-07T02:18:16;95482.19;;;5.44
42119;BMP280;27783;42.782;23.274;2022-12-07T02:29:37;95480.19;;;5.34
42119;BMP280;27783;42.782;23.274;2022-12-07T02:35:05;95476.19;;;5.18
42119;BMP280;27783;42.782;23.274;2022-12-07T02:40:25;95470.50;;;5.13
42119;BMP280;27783;42.782;23.274;2022-12-07T02:43:02;95477.13;;;5.07
42119;BMP280;27783;42.782;23.274;2022-12-07T02:45:31;95472.22;;;5.05
42119;BMP280;27783;42.782;23.274;2022-12-07T02:47:59;95474.09;;;5.05
42119;BMP280;27783;42.782;23.274;2022-12-07T02:50:26;95465.72;;;4.96
42119;BMP280;27783;42.782;23.274;2022-12-07T02:52:53;95463.81;;;4.93
42119;BMP280;27783;42.782;23.274;2022-12-07T02:55:24;95463.75;;;4.90
42119;BMP280;27783;42.782;23.274;2022-12-07T03:00:31;95460.25;;;4.82
42119;BMP280;27783;42.782;23.274;2022-12-07T03:03:21;95468.31;;;4.74
42119;BMP280;27783;42.782;23.274;2022-12-07T03:09:08;95456.13;;;4.82
42119;BMP280;27783;42.782;23.274;2022-12-07T03:12:18;95455.81;;;4.83
42119;BMP280;27783;42.782;23.274;2022-12-07T03:14:57;95443.97;;;4.89
42119;BMP280;27783;42.782;23.274;2022-12-07T03:17:27;95453.25;;;4.86
42119;BMP280;27783;42.782;23.274;2022-12-07T03:19:58;95447.22;;;4.82
42119;BMP280;27783;42.782;23.274;2022-12-07T03:22:32;95447.59;;;4.84
42119;BMP280;27783;42.782;23.274;2022-12-07T03:25:12;95450.72;;;4.90
42119;BMP280;27783;42.782;23.274;2022-12-07T03:27:44;95455.56;;;4.91
42119;BMP280;27783;42.782;23.274;2022-12-07T03:30:27;95454.75;;;4.87
42119;BMP280;27783;42.782;23.274;2022-12-07T03:33:29;95463.56;;;4.80
42119;BMP280;27783;42.782;23.274;2022-12-07T03:36:26;95462.00;;;4.75
42119;BMP280;27783;42.782;23.274;2022-12-07T03:41:48;95464.59;;;4.75
42119;BMP280;27783;42.782;23.274;2022-12-07T03:44:15;95465.34;;;4.76
42119;BMP280;27783;42.782;23.274;2022-12-07T03:47:12;95459.44;;;4.79
42119;BMP280;27783;42.782;23.274;2022-12-07T03:50:18;95456.31;;;4.70
42119;BMP280;27783;42.782;23.274;2022-12-07T03:53:15;95461.72;;;4.80
42119;BMP280;27783;42.782;23.274;2022-12-07T03:55:46;95457.47;;;4.72
42119;BMP280;27783;42.782;23.274;2022-12-07T03:58:18;95457.63;;;4.61
42119;BMP280;27783;42.782;23.274;2022-12-07T04:00:47;95451.41;;;4.68
42119;BMP280;27783;42.782;23.274;2022-12-07T04:03:14;95452.94;;;4.69
42119;BMP280;27783;42.782;23.274;2022-12-07T04:05:40;95459.06;;;4.58
42119;BMP280;27783;42.782;23.274;2022-12-07T04:08:06;95446.44;;;4.60
42119;BMP280;27783;42.782;23.274;2022-12-07T04:10:34;95458.53;;;4.49
42119;BMP280;27783;42.782;23.274;2022-12-07T04:13:00;95456.38;;;4.55
42119;BMP280;27783;42.782;23.274;2022-12-07T04:15:26;95447.25;;;4.64
42119;BMP280;27783;42.782;23.274;2022-12-07T04:17:53;95450.13;;;4.59
42119;BMP280;27783;42.782;23.274;2022-12-07T04:20:21;95451.22;;;4.58
42119;BMP280;27783;42.782;23.274;2022-12-07T04:22:47;95459.06;;;4.58
42119;BMP280;27783;42.782;23.274;2022-12-07T04:25:13;95452.63;;;4.52
42119;BMP280;27783;42.782;23.274;2022-12-07T04:27:38;95448.56;;;4.55
42119;BMP280;27783;42.782;23.274;2022-12-07T04:30:05;95450.00;;;4.52
42119;BMP280;27783;42.782;23.274;2022-12-07T04:32:31;95452.91;;;4.48
42119;BMP280;27783;42.782;23.274;2022-12-07T04:34:56;95451.38;;;4.47
42119;BMP280;27783;42.782;23.274;2022-12-07T04:37:23;95438.75;;;4.48
42119;BMP280;27783;42.782;23.274;2022-12-07T04:39:49;95432.53;;;4.75
42119;BMP280;27783;42.782;23.274;2022-12-07T04:42:15;95449.63;;;4.94
42119;BMP280;27783;42.782;23.274;2022-12-07T04:44:41;95446.19;;;5.09
42119;BMP280;27783;42.782;23.274;2022-12-07T04:47:06;95454.25;;;5.22
42119;BMP280;27783;42.782;23.274;2022-12-07T04:49:33;95448.41;;;4.66
42119;BMP280;27783;42.782;23.274;2022-12-07T04:51:59;95467.59;;;4.18
42119;BMP280;27783;42.782;23.274;2022-12-07T04:54:25;95463.19;;;4.04
42119;BMP280;27783;42.782;23.274;2022-12-07T04:56:51;95470.34;;;4.07
42119;BMP280;27783;42.782;23.274;2022-12-07T04:59:18;95463.97;;;4.04
42119;BMP280;27783;42.782;23.274;2022-12-07T05:01:44;95465.38;;;4.02
42119;BMP280;27783;42.782;23.274;2022-12-07T05:04:10;95460.72;;;4.11
42119;BMP280;27783;42.782;23.274;2022-12-07T05:06:37;95458.44;;;4.09
42119;BMP280;27783;42.782;23.274;2022-12-07T05:09:04;95457.84;;;3.97
42119;BMP280;27783;42.782;23.274;2022-12-07T05:11:29;95452.25;;;3.80
42119;BMP280;27783;42.782;23.274;2022-12-07T05:14:09;95445.59;;;3.82
42119;BMP280;27783;42.782;23.274;2022-12-07T05:16:35;95459.28;;;3.95
42119;BMP280;27783;42.782;23.274;2022-12-07T05:19:01;95466.75;;;3.96
42119;BMP280;27783;42.782;23.274;2022-12-07T05:21:27;95472.56;;;3.90
42119;BMP280;27783;42.782;23.274;2022-12-07T05:23:52;95467.13;;;3.80
42119;BMP280;27783;42.782;23.274;2022-12-07T05:26:18;95467.34;;;3.90
42119;BMP280;27783;42.782;23.274;2022-12-07T05:28:43;95467.81;;;3.77
42119;BMP280;27783;42.782;23.274;2022-12-07T05:31:09;95464.53;;;3.80
42119;BMP280;27783;42.782;23.274;2022-12-07T05:33:34;95471.66;;;3.82
42119;BMP280;27783;42.782;23.274;2022-12-07T05:36:00;95467.28;;;3.86
42119;BMP280;27783;42.782;23.274;2022-12-07T05:38:33;95464.81;;;3.93
42119;BMP280;27783;42.782;23.274;2022-12-07T05:41:03;95458.09;;;3.92
42119;BMP280;27783;42.782;23.274;2022-12-07T05:43:29;95467.03;;;3.91
42119;BMP280;27783;42.782;23.274;2022-12-07T05:45:55;95469.63;;;3.91
42119;BMP280;27783;42.782;23.274;2022-12-07T05:48:20;95463.81;;;3.98
42119;BMP280;27783;42.782;23.274;2022-12-07T05:50:49;95459.66;;;3.45
42119;BMP280;27783;42.782;23.274;2022-12-07T05:53:15;95463.53;;;3.35
42119;BMP280;27783;42.782;23.274;2022-12-07T05:55:41;95459.41;;;3.34
42119;BMP280;27783;42.782;23.274;2022-12-07T05:58:06;95454.28;;;3.38
42119;BMP280;27783;42.782;23.274;2022-12-07T06:00:50;95454.44;;;3.45
42119;BMP280;27783;42.782;23.274;2022-12-07T06:03:15;95457.59;;;3.53
42119;BMP280;27783;42.782;23.274;2022-12-07T06:05:41;95451.88;;;3.63
42119;BMP280;27783;42.782;23.274;2022-12-07T06:08:07;95451.09;;;3.63
42119;BMP280;27783;42.782;23.274;2022-12-07T06:10:32;95441.13;;;3.65
42119;BMP280;27783;42.782;23.274;2022-12-07T06:12:57;95459.44;;;3.68
42119;BMP280;27783;42.782;23.274;2022-12-07T06:15:23;95444.72;;;3.60
42119;BMP280;27783;42.782;23.274;2022-12-07T06:17:48;95447.19;;;3.53
42119;BMP280;27783;42.782;23.274;2022-12-07T06:20:14;95455.06;;;3.57
42119;BMP280;27783;42.782;23.274;2022-12-07T06:22:39;95464.41;;;3.58
42119;BMP280;27783;42.782;23.274;2022-12-07T06:25:05;95459.44;;;3.68
42119;BMP280;27783;42.782;23.274;2022-12-07T06:27:32;95466.59;;;3.56
42119;BMP280;27783;42.782;23.274;2022-12-07T06:29:58;95473.91;;;3.50
42119;BMP280;27783;42.782;23.274;2022-12-07T06:32:23;95473.41;;;3.60
42119;BMP280;27783;42.782;23.274;2022-12-07T06:34:49;95469.78;;;3.65
42119;BMP280;27783;42.782;23.274;2022-12-07T06:37:14;95475.16;;;3.71
42119;BMP280;27783;42.782;23.274;2022-12-07T06:39:40;95468.88;;;3.57
42119;BMP280;27783;42.782;23.274;2022-12-07T06:42:05;95472.06;;;3.51
42119;BMP280;27783;42.782;23.274;2022-12-07T06:44:31;95476.94;;;3.37
42119;BMP280;27783;42.782;23.274;2022-12-07T06:46:56;95489.63;;;3.54
42119;BMP280;27783;42.782;23.274;2022-12-07T06:49:22;95488.34;;;3.63
42119;BMP280;27783;42.782;23.274;2022-12-07T06:51:47;95482.13;;;3.67
42119;BMP280;27783;42.782;23.274;2022-12-07T06:54:14;95476.41;;;3.62
42119;BMP280;27783;42.782;23.274;2022-12-07T06:56:39;95478.28;;;3.62
42119;BMP280;27783;42.782;23.274;2022-12-07T06:59:05;95479.00;;;3.62
42119;BMP280;27783;42.782;23.274;2022-12-07T07:01:32;95483.97;;;3.67
42119;BMP280;27783;42.782;23.274;2022-12-07T07:03:58;95484.34;;;3.84
42119;BMP280;27783;42.782;23.274;2022-12-07T07:06:23;95486.00;;;3.92
42119;BMP280;27783;42.782;23.274;2022-12-07T07:08:49;95488.34;;;3.97
42119;BMP280;27783;42.782;23.274;2022-12-07T07:11:14;95486.91;;;3.99
42119;BMP280;27783;42.782;23.274;2022-12-07T07:13:40;95481.00;;;4.02
42119;BMP280;27783;42.782;23.274;2022-12-07T07:16:06;95479.94;;;4.03
42119;BMP280;27783;42.782;23.274;2022-12-07T07:18:32;95482.28;;;4.08
42119;BMP280;27783;42.782;23.274;2022-12-07T07:20:58;95481.16;;;4.09
42119;BMP280;27783;42.782;23.274;2022-12-07T07:23:24;95484.97;;;4.11
42119;BMP280;27783;42.782;23.274;2022-12-07T07:25:49;95484.06;;;4.22
42119;BMP280;27783;42.782;23.274;2022-12-07T07:28:15;95472.88;;;4.40
42119;BMP280;27783;42.782;23.274;2022-12-07T07:30:42;95476.78;;;4.49
42119;BMP280;27783;42.782;23.274;2022-12-07T07:33:07;95482.97;;;4.60
42119;BMP280;27783;42.782;23.274;2022-12-07T07:35:34;95473.97;;;4.58
42119;BMP280;27783;42.782;23.274;2022-12-07T07:38:00;95480.81;;;4.65
42119;BMP280;27783;42.782;23.274;2022-12-07T07:40:27;95483.63;;;4.76
42119;BMP280;27783;42.782;23.274;2022-12-07T07:42:54;95479.06;;;4.91
42119;BMP280;27783;42.782;23.274;2022-12-07T07:45:20;95477.00;;;5.00
42119;BMP280;27783;42.782;23.274;2022-12-07T07:47:46;95476.59;;;5.20
42119;BMP280;27783;42.782;23.274;2022-12-07T07:50:12;95476.56;;;5.42
42119;BMP280;27783;42.782;23.274;2022-12-07T07:52:37;95476.00;;;5.51
42119;BMP280;27783;42.782;23.274;2022-12-07T07:55:03;95474.84;;;5.49
42119;BMP280;27783;42.782;23.274;2022-12-07T07:57:29;95479.31;;;5.48
42119;BMP280;27783;42.782;23.274;2022-12-07T07:59:54;95481.56;;;5.50
42119;BMP280;27783;42.782;23.274;2022-12-07T08:02:20;95480.69;;;5.65
42119;BMP280;27783;42.782;23.274;2022-12-07T08:04:47;95480.38;;;5.66
42119;BMP280;27783;42.782;23.274;2022-12-07T08:07:13;95487.88;;;5.71
42119;BMP280;27783;42.782;23.274;2022-12-07T08:09:38;95478.84;;;5.65
42119;BMP280;27783;42.782;23.274;2022-12-07T08:12:04;95479.72;;;5.72
42119;BMP280;27783;42.782;23.274;2022-12-07T08:14:30;95481.25;;;5.77
42119;BMP280;27783;42.782;23.274;2022-12-07T08:16:56;95483.06;;;5.73
42119;BMP280;27783;42.782;23.274;2022-12-07T08:19:21;95486.44;;;5.73
42119;BMP280;27783;42.782;23.274;2022-12-07T08:21:47;95483.06;;;5.73
42119;BMP280;27783;42.782;23.274;2022-12-07T08:24:13;95483.72;;;5.92
42119;BMP280;27783;42.782;23.274;2022-12-07T08:26:38;95482.31;;;6.26
42119;BMP280;27783;42.782;23.274;2022-12-07T08:29:04;95489.63;;;6.43
42119;BMP280;27783;42.782;23.274;2022-12-07T08:31:29;95483.16;;;6.33
42119;BMP280;27783;42.782;23.274;2022-12-07T08:33:55;95476.72;;;6.56
42119;BMP280;27783;42.782;23.274;2022-12-07T08:36:21;95470.53;;;6.71
42119;BMP280;27783;42.782;23.274;2022-12-07T08:38:49;95476.56;;;6.78
42119;BMP280;27783;42.782;23.274;2022-12-07T08:41:15;95468.00;;;6.78
42119;BMP280;27783;42.782;23.274;2022-12-07T08:43:40;95476.50;;;6.68
42119;BMP280;27783;42.782;23.274;2022-12-07T08:46:21;95470.69;;;6.84
42119;BMP280;27783;42.782;23.274;2022-12-07T08:49:13;95473.06;;;6.99
42119;BMP280;27783;42.782;23.274;2022-12-07T08:51:41;95458.66;;;7.19
42119;BMP280;27783;42.782;23.274;2022-12-07T08:54:09;95460.44;;;7.08
42119;BMP280;27783;42.782;23.274;2022-12-07T08:56:35;95454.94;;;7.65
42119;BMP280;27783;42.782;23.274;2022-12-07T08:59:01;95456.50;;;7.31
42119;BMP280;27783;42.782;23.274;2022-12-07T09:01:27;95448.56;;;7.17
42119;BMP280;27783;42.782;23.274;2022-12-07T09:03:53;95452.28;;;7.62
42119;BMP280;27783;42.782;23.274;2022-12-07T09:06:18;95446.44;;;7.33
42119;BMP280;27783;42.782;23.274;2022-12-07T09:08:47;95437.00;;;7.78
42119;BMP280;27783;42.782;23.274;2022-12-07T09:11:13;95439.34;;;7.89
42119;BMP280;27783;42.782;23.274;2022-12-07T09:13:39;95428.88;;;7.93
42119;BMP280;27783;42.782;23.274;2022-12-07T09:16:04;95430.50;;;8.11
42119;BMP280;27783;42.782;23.274;2022-12-07T09:18:30;95430.34;;;7.90
42119;BMP280;27783;42.782;23.274;2022-12-07T09:20:56;95426.22;;;7.89
42119;BMP280;27783;42.782;23.274;2022-12-07T09:23:21;95423.47;;;8.28
42119;BMP280;27783;42.782;23.274;2022-12-07T09:25:47;95432.88;;;8.36
42119;BMP280;27783;42.782;23.274;2022-12-07T09:28:12;95429.00;;;8.06
42119;BMP280;27783;42.782;23.274;2022-12-07T09:30:37;95428.50;;;8.77
42119;BMP280;27783;42.782;23.274;2022-12-07T09:33:03;95427.88;;;8.11
42119;BMP280;27783;42.782;23.274;2022-12-07T09:35:28;95425.31;;;8.28
42119;BMP280;27783;42.782;23.274;2022-12-07T09:37:54;95418.72;;;8.67
42119;BMP280;27783;42.782;23.274;2022-12-07T09:40:22;95426.50;;;8.37
42119;BMP280;27783;42.782;23.274;2022-12-07T09:42:53;95421.13;;;8.16
42119;BMP280;27783;42.782;23.274;2022-12-07T09:45:33;95406.72;;;8.70
42119;BMP280;27783;42.782;23.274;2022-12-07T09:47:59;95405.94;;;8.56
42119;BMP280;27783;42.782;23.274;2022-12-07T09:50:27;95406.25;;;8.44
42119;BMP280;27783;42.782;23.274;2022-12-07T09:52:54;95400.22;;;8.37
42119;BMP280;27783;42.782;23.274;2022-12-07T09:55:33;95399.22;;;8.68
42119;BMP280;27783;42.782;23.274;2022-12-07T09:57:59;95399.25;;;8.92
42119;BMP280;27783;42.782;23.274;2022-12-07T10:00:25;95387.84;;;8.34
42119;BMP280;27783;42.782;23.274;2022-12-07T10:05:25;95381.25;;;8.94
42119;BMP280;27783;42.782;23.274;2022-12-07T10:07:51;95385.00;;;9.17
42119;BMP280;27783;42.782;23.274;2022-12-07T10:10:26;95372.22;;;8.75
42119;BMP280;27783;42.782;23.274;2022-12-07T10:15:19;95358.66;;;8.73
42119;BMP280;27783;42.782;23.274;2022-12-07T10:17:51;95364.25;;;8.48
42119;BMP280;27783;42.782;23.274;2022-12-07T10:20:24;95359.41;;;8.66
42119;BMP280;27783;42.782;23.274;2022-12-07T10:23:01;95359.00;;;8.44
42119;BMP280;27783;42.782;23.274;2022-12-07T10:25:28;95351.94;;;8.92
42119;BMP280;27783;42.782;23.274;2022-12-07T10:28:03;95348.19;;;8.80
42119;BMP280;27783;42.782;23.274;2022-12-07T10:35:56;95339.91;;;9.42
42119;BMP280;27783;42.782;23.274;2022-12-07T10:38:26;95340.22;;;9.71
42119;BMP280;27783;42.782;23.274;2022-12-07T10:41:06;95349.31;;;8.85
42119;BMP280;27783;42.782;23.274;2022-12-07T10:43:32;95335.41;;;9.43
42119;BMP280;27783;42.782;23.274;2022-12-07T10:46:26;95337.66;;;9.54
42119;BMP280;27783;42.782;23.274;2022-12-07T10:49:37;95332.75;;;9.77
42119;BMP280;27783;42.782;23.274;2022-12-07T10:52:24;95333.53;;;9.06
42119;BMP280;27783;42.782;23.274;2022-12-07T11:00:22;95316.25;;;10.49
42119;BMP280;27783;42.782;23.274;2022-12-07T11:03:01;95310.50;;;9.91
42119;BMP280;27783;42.782;23.274;2022-12-07T11:05:50;95300.03;;;11.04
42119;BMP280;27783;42.782;23.274;2022-12-07T11:11:14;95297.31;;;10.68
42119;BMP280;27783;42.782;23.274;2022-12-07T11:13:48;95287.34;;;10.92
42119;BMP280;27783;42.782;23.274;2022-12-07T11:16:51;95279.69;;;11.04
42119;BMP280;27783;42.782;23.274;2022-12-07T11:19:48;95264.84;;;10.21
42119;BMP280;27783;42.782;23.274;2022-12-07T11:22:21;95273.19;;;10.13
42119;BMP280;27783;42.782;23.274;2022-12-07T11:31:12;95272.50;;;11.51
42119;BMP280;27783;42.782;23.274;2022-12-07T11:36:08;95262.41;;;11.43
42119;BMP280;27783;42.782;23.274;2022-12-07T11:38:43;95259.38;;;11.77
42119;BMP280;27783;42.782;23.274;2022-12-07T11:41:12;95258.78;;;11.95
42119;BMP280;27783;42.782;23.274;2022-12-07T11:46:12;95255.00;;;11.96
42119;BMP280;27783;42.782;23.274;2022-12-07T11:48:46;95262.84;;;11.38
42119;BMP280;27783;42.782;23.274;2022-12-07T11:51:16;95236.13;;;11.68
42119;BMP280;27783;42.782;23.274;2022-12-07T11:53:48;95245.56;;;10.87
42119;BMP280;27783;42.782;23.274;2022-12-07T11:56:17;95231.56;;;12.01
42119;BMP280;27783;42.782;23.274;2022-12-07T12:06:43;95224.84;;;12.49
42119;BMP280;27783;42.782;23.274;2022-12-07T12:15:00;95221.41;;;11.35
42119;BMP280;27783;42.782;23.274;2022-12-07T12:20:31;95209.78;;;12.71
42119;BMP280;27783;42.782;23.274;2022-12-07T12:23:20;95201.84;;;12.46
42119;BMP280;27783;42.782;23.274;2022-12-07T12:25:58;95201.44;;;12.21
42119;BMP280;27783;42.782;23.274;2022-12-07T12:28:35;95192.94;;;12.62
42119;BMP280;27783;42.782;23.274;2022-12-07T12:33:52;95196.81;;;12.29
42119;BMP280;27783;42.782;23.274;2022-12-07T12:36:20;95185.16;;;12.26
42119;BMP280;27783;42.782;23.274;2022-12-07T12:47:40;95185.78;;;11.49
42119;BMP280;27783;42.782;23.274;2022-12-07T12:50:17;95179.28;;;11.28
42119;BMP280;27783;42.782;23.274;2022-12-07T12:57:34;95178.50;;;11.60
42119;BMP280;27783;42.782;23.274;2022-12-07T13:00:14;95183.31;;;11.68
42119;BMP280;27783;42.782;23.274;2022-12-07T13:02:54;95174.06;;;11.54
42119;BMP280;27783;42.782;23.274;2022-12-07T13:05:22;95167.69;;;11.51
42119;BMP280;27783;42.782;23.274;2022-12-07T13:07:53;95166.91;;;12.61
42119;BMP280;27783;42.782;23.274;2022-12-07T13:18:35;95167.66;;;11.84
42119;BMP280;27783;42.782;23.274;2022-12-07T13:34:26;95149.81;;;11.91
42119;BMP280;27783;42.782;23.274;2022-12-07T13:36:51;95161.16;;;11.59
42119;BMP280;27783;42.782;23.274;2022-12-07T13:41:44;95158.75;;;12.26
42119;BMP280;27783;42.782;23.274;2022-12-07T13:44:17;95165.25;;;12.18
42119;BMP280;27783;42.782;23.274;2022-12-07T13:49:26;95159.56;;;11.68
42119;BMP280;27783;42.782;23.274;2022-12-07T13:51:53;95165.66;;;11.91
42119;BMP280;27783;42.782;23.274;2022-12-07T13:54:19;95163.72;;;11.66
42119;BMP280;27783;42.782;23.274;2022-12-07T13:56:50;95160.78;;;10.92
42119;BMP280;27783;42.782;23.274;2022-12-07T13:59:21;95152.84;;;11.32
42119;BMP280;27783;42.782;23.274;2022-12-07T14:01:49;95154.41;;;11.87
42119;BMP280;27783;42.782;23.274;2022-12-07T14:04:19;95153.78;;;12.02
42119;BMP280;27783;42.782;23.274;2022-12-07T14:06:51;95160.38;;;11.91
42119;BMP280;27783;42.782;23.274;2022-12-07T14:09:19;95149.31;;;11.74
42119;BMP280;27783;42.782;23.274;2022-12-07T14:11:47;95158.88;;;11.32
42119;BMP280;27783;42.782;23.274;2022-12-07T14:14:18;95147.00;;;11.76
42119;BMP280;27783;42.782;23.274;2022-12-07T14:16:43;95142.31;;;11.61
42119;BMP280;27783;42.782;23.274;2022-12-07T14:19:44;95147.94;;;11.63
42119;BMP280;27783;42.782;23.274;2022-12-07T14:22:26;95150.34;;;11.50
42119;BMP280;27783;42.782;23.274;2022-12-07T14:25:23;95160.81;;;11.28
42119;BMP280;27783;42.782;23.274;2022-12-07T14:27:58;95163.53;;;10.82
42119;BMP280;27783;42.782;23.274;2022-12-07T14:30:27;95160.25;;;10.68
42119;BMP280;27783;42.782;23.274;2022-12-07T14:32:57;95165.41;;;10.82
42119;BMP280;27783;42.782;23.274;2022-12-07T14:35:23;95159.34;;;10.84
42119;BMP280;27783;42.782;23.274;2022-12-07T14:37:49;95157.78;;;10.48
42119;BMP280;27783;42.782;23.274;2022-12-07T14:40:18;95166.91;;;9.83
42119;BMP280;27783;42.782;23.274;2022-12-07T14:42:45;95162.97;;;10.08
42119;BMP280;27783;42.782;23.274;2022-12-07T14:45:17;95163.22;;;10.27
42119;BMP280;27783;42.782;23.274;2022-12-07T14:47:44;95167.81;;;10.20
42119;BMP280;27783;42.782;23.274;2022-12-07T14:50:15;95173.50;;;10.12
42119;BMP280;27783;42.782;23.274;2022-12-07T14:52:43;95164.19;;;10.00
42119;BMP280;27783;42.782;23.274;2022-12-07T14:55:19;95164.59;;;9.92
42119;BMP280;27783;42.782;23.274;2022-12-07T14:57:46;95168.84;;;9.66
42119;BMP280;27783;42.782;23.274;2022-12-07T15:00:15;95167.03;;;9.53
42119;BMP280;27783;42.782;23.274;2022-12-07T15:02:43;95174.22;;;9.39
42119;BMP280;27783;42.782;23.274;2022-12-07T15:05:09;95177.28;;;9.31
42119;BMP280;27783;42.782;23.274;2022-12-07T15:07:34;95178.41;;;9.23
42119;BMP280;27783;42.782;23.274;2022-12-07T15:10:00;95187.53;;;8.91
42119;BMP280;27783;42.782;23.274;2022-12-07T15:12:25;95179.25;;;8.93
42119;BMP280;27783;42.782;23.274;2022-12-07T15:14:50;95177.38;;;8.86
42119;BMP280;27783;42.782;23.274;2022-12-07T15:17:16;95177.78;;;8.75
42119;BMP280;27783;42.782;23.274;2022-12-07T15:19:41;95176.69;;;8.62
42119;BMP280;27783;42.782;23.274;2022-12-07T15:22:08;95187.19;;;8.69
42119;BMP280;27783;42.782;23.274;2022-12-07T15:24:35;95189.06;;;8.51
42119;BMP280;27783;42.782;23.274;2022-12-07T15:27:01;95185.28;;;8.05
42119;BMP280;27783;42.782;23.274;2022-12-07T15:29:29;95195.03;;;8.08
42119;BMP280;27783;42.782;23.274;2022-12-07T15:31:55;95177.78;;;8.24
42119;BMP280;27783;42.782;23.274;2022-12-07T15:34:26;95196.53;;;8.05
42119;BMP280;27783;42.782;23.274;2022-12-07T15:36:54;95193.84;;;7.85
42119;BMP280;27783;42.782;23.274;2022-12-07T15:39:20;95191.56;;;7.66
42119;BMP280;27783;42.782;23.274;2022-12-07T15:41:46;95197.84;;;7.48
42119;BMP280;27783;42.782;23.274;2022-12-07T15:44:14;95184.69;;;7.35
42119;BMP280;27783;42.782;23.274;2022-12-07T15:46:59;95197.81;;;7.42
42119;BMP280;27783;42.782;23.274;2022-12-07T15:49:27;95206.78;;;7.34
42119;BMP280;27783;42.782;23.274;2022-12-07T15:51:53;95201.13;;;6.63
42119;BMP280;27783;42.782;23.274;2022-12-07T15:54:32;95207.63;;;6.85
42119;BMP280;27783;42.782;23.274;2022-12-07T15:56:58;95207.88;;;6.67
42119;BMP280;27783;42.782;23.274;2022-12-07T15:59:27;95204.41;;;7.09
42119;BMP280;27783;42.782;23.274;2022-12-07T16:01:54;95202.22;;;7.17
42119;BMP280;27783;42.782;23.274;2022-12-07T16:04:21;95217.28;;;7.34
42119;BMP280;27783;42.782;23.274;2022-12-07T16:06:47;95216.09;;;7.25
42119;BMP280;27783;42.782;23.274;2022-12-07T16:09:12;95218.94;;;6.96
42119;BMP280;27783;42.782;23.274;2022-12-07T16:11:38;95220.56;;;6.65
42119;BMP280;27783;42.782;23.274;2022-12-07T16:14:03;95221.84;;;6.32
42119;BMP280;27783;42.782;23.274;2022-12-07T16:16:30;95228.78;;;6.60
42119;BMP280;27783;42.782;23.274;2022-12-07T16:18:56;95225.81;;;6.65